Time;durP1;ratioP1;P1;durP2;ratioP2;P2;SDS_P1;SDS_P2;PMS_P1;PMS_P2;Temp;Humidity;BMP_temperature;BMP_pressure;BME280_temperature;BME280_humidity;BME280_pressure;Samples;Min_cycle;Max_cycle;Signal;HPM_P1;HPM_P2
2023/03/02 00:01:27;;;;;;;;;;;;;;;;;;5091718;28;1124;-43
2023/03/02 00:03:57;;;;;;;;;;;;;;;;;;5091939;28;2322;-43
2023/03/02 00:06:27;;;;;;;;;;;;;;;;;;5109242;28;1541;-44
2023/03/02 00:08:54;;;;;;;;;;;;;;;;;;5111882;28;1923;-41
2023/03/02 00:11:21;;;;;;;;;;;;;;;;;;5094472;28;2085;-42
2023/03/02 00:13:48;;;;;;;;;;;;;;;;;;5112128;28;2194;-41
2023/03/02 00:16:16;;;;;;;;;;;;;;;;;;5112243;28;1473;-42
2023/03/02 00:18:43;;;;;;;;;;;;;;;;;;5112081;28;2179;-42
2023/03/02 00:21:11;;;;;;;;;;;;;;;;;;5112112;28;1715;-42
2023/03/02 00:23:38;;;;;;;;;;;;;;;;;;5112025;28;2086;-43
2023/03/02 00:26:05;;;;;;;;;;;;;;;;;;5111828;28;1928;-48
2023/03/02 00:28:33;;;;;;;;;;;;;;;;;;5110987;28;1727;-46
2023/03/02 00:31:04;;;;;;;;;;;;;;;;;;5111011;28;1724;-44
2023/03/02 00:33:32;;;;;;;;;;;;;;;;;;5091496;28;2246;-45
2023/03/02 00:36:00;;;;;;;;;;;;;;;;;;5091151;28;1662;-42
2023/03/02 00:38:27;;;;;;;;;;;;;;;;;;5091527;28;2118;-43
2023/03/02 00:40:55;;;;;;;;;;;;;;;;;;5091320;28;1990;-41
2023/03/02 00:43:26;;;;;;;;;;;;;;;;;;5091295;28;1756;-43
2023/03/02 00:45:54;;;;;;;;;;;;;;;;;;5090944;28;1949;-43
2023/03/02 00:48:22;;;;;;;;;;;;;;;;;;5091481;28;1809;-42
2023/03/02 00:50:49;;;;;;;;;;;;;;;;;;5091549;28;1850;-41
2023/03/02 00:53:16;;;;;;;;;;;;;;;;;;5091268;28;1894;-41
2023/03/02 00:55:51;;;;;;;;;;;;;;;;;;5091423;28;1837;-41
2023/03/02 00:58:20;;;;;;;;;;;;;;;;;;5091650;28;2104;-42
2023/03/02 01:00:47;;;;;;;;;;;;;;;;;;5091018;28;1550;-45
2023/03/02 01:03:15;;;;;;;;;;;;;;;;;;5072666;28;2055;-41
2023/03/02 01:05:43;;;;;;;;;;;;;;;;;;5072822;28;1910;-42
2023/03/02 01:08:10;;;;;;;;;;;;;;;;;;5091006;28;1875;-42
2023/03/02 01:10:37;;;;;;;;;;;;;;;;;;5090784;28;2047;-43
2023/03/02 01:13:05;;;;;;;;;;;;;;;;;;5091137;28;1932;-43
2023/03/02 01:15:32;;;;;;;;;;;;;;;;;;5090760;28;2236;-41
2023/03/02 01:18:00;;;;;;;;;;;;;;;;;;5091082;28;1707;-43
2023/03/02 01:20:28;;;;;;;;;;;;;;;;;;5090890;28;1513;-43
2023/03/02 01:22:55;;;;;;;;;;;;;;;;;;5091055;28;1854;-42
2023/03/02 01:25:22;;;;;;;;;;;;;;;;;;5091051;28;1986;-42
2023/03/02 01:27:49;;;;;;;;;;;;;;;;;;5089554;28;1846;-42
2023/03/02 01:30:17;;;;;;;;;;;;;;;;;;5090859;28;1924;-42
2023/03/02 01:32:44;;;;;;;;;;;;;;;;;;5090885;28;1592;-42
2023/03/02 01:35:12;;;;;;;;;;;;;;;;;;5090576;28;1994;-42
2023/03/02 01:37:39;;;;;;;;;;;;;;;;;;5072966;28;1775;-42
2023/03/02 01:40:07;;;;;;;;;;;;;;;;;;5091660;28;2213;-42
2023/03/02 01:42:44;;;;;;;;;;;;;;;;;;5098199;28;2096;-41
2023/03/02 01:45:30;;;;;;;;;;;;;;;;;;5114540;28;1972;-42
2023/03/02 01:47:57;;;;;;;;;;;;;;;;;;5096555;28;2265;-42
2023/03/02 01:50:25;;;;;;;;;;;;;;;;;;5096812;28;1572;-42
2023/03/02 01:52:57;;;;;;;;;;;;;;;;;;5115106;28;1884;-44
2023/03/02 01:55:25;;;;;;;;;;;;;;;;;;5096870;28;1747;-42
2023/03/02 01:57:53;;;;;;;;;;;;;;;;;;5115039;28;1847;-43
2023/03/02 02:00:30;;;;;;;;;;;;;;;;;;5096443;28;1821;-40
2023/03/02 02:03:07;;;;;;;;;;;;;;;;;;5114794;28;1728;-42
2023/03/02 02:05:39;;;;;;;;;;;;;;;;;;5103762;28;2328;-43
2023/03/02 02:08:06;;;;;;;;;;;;;;;;;;5075838;28;1827;-43
2023/03/02 02:10:34;;;;;;;;;;;;;;;;;;5076010;28;1365;-42
2023/03/02 02:13:01;;;;;;;;;;;;;;;;;;5076173;28;2134;-43
2023/03/02 02:15:29;;;;;;;;;;;;;;;;;;5094199;28;2173;-42
2023/03/02 02:17:56;;;;;;;;;;;;;;;;;;5094235;28;1063;-42
2023/03/02 02:20:26;;;;;;;;;;;;;;;;;;5094212;28;2047;-43
2023/03/02 02:22:57;;;;;;;;;;;;;;;;;;5103258;28;1821;-46
2023/03/02 02:25:33;;;;;;;;;;;;;;;;;;5113802;28;2215;-43
2023/03/02 02:28:02;;;;;;;;;;;;;;;;;;5095915;28;1424;-43
2023/03/02 02:30:29;;;;;;;;;;;;;;;;;;5114379;28;2194;-44
2023/03/02 02:32:57;;;;;;;;;;;;;;;;;;5092712;28;2026;-41
2023/03/02 02:35:27;;;;;;;;;;;;;;;;;;5093563;28;2403;-42
2023/03/02 02:37:56;;;;;;;;;;;;;;;;;;5093839;28;1664;-42
2023/03/02 02:40:43;;;;;;;;;;;;;;;;;;5093662;28;1677;-42
2023/03/02 02:43:15;;;;;;;;;;;;;;;;;;5075315;28;2156;-42
2023/03/02 02:45:42;;;;;;;;;;;;;;;;;;5093215;28;1922;-43
2023/03/02 02:48:12;;;;;;;;;;;;;;;;;;5093451;28;1832;-42
2023/03/02 02:50:39;;;;;;;;;;;;;;;;;;5075384;28;2169;-42
2023/03/02 02:53:16;;;;;;;;;;;;;;;;;;5074361;28;2263;-42
2023/03/02 02:55:45;;;;;;;;;;;;;;;;;;5075100;28;1936;-42
2023/03/02 02:58:21;;;;;;;;;;;;;;;;;;5075231;28;2214;-42
2023/03/02 03:00:48;;;;;;;;;;;;;;;;;;5093141;28;2108;-42
2023/03/02 03:03:30;;;;;;;;;;;;;;;;;;5075029;28;2062;-42
2023/03/02 03:06:01;;;;;;;;;;;;;;;;;;5089066;28;2001;-42
2023/03/02 03:08:48;;;;;;;;;;;;;;;;;;5095232;28;2042;-41
2023/03/02 03:11:25;;;;;;;;;;;;;;;;;;5095174;28;1477;-42
2023/03/02 03:13:56;;;;;;;;;;;;;;;;;;5113194;28;1689;-41
2023/03/02 03:16:24;;;;;;;;;;;;;;;;;;5095412;28;1776;-42
2023/03/02 03:18:52;;;;;;;;;;;;;;;;;;5090927;28;1897;-42
2023/03/02 03:21:19;;;;;;;;;;;;;;;;;;5058190;28;1854;-42
2023/03/02 03:23:47;;;;;;;;;;;;;;;;;;5092989;28;1824;-41
2023/03/02 03:26:15;;;;;;;;;;;;;;;;;;5074596;28;1919;-43
2023/03/02 03:28:45;;;;;;;;;;;;;;;;;;5074541;28;1893;-43
2023/03/02 03:31:20;;;;;;;;;;;;;;;;;;5074216;28;1992;-45
2023/03/02 03:34:00;;;;;;;;;;;;;;;;;;5092566;28;1991;-42
2023/03/02 03:36:32;;;;;;;;;;;;;;;;;;5090039;28;2308;-43
2023/03/02 03:39:00;;;;;;;;;;;;;;;;;;5094622;28;2182;-43
2023/03/02 03:41:28;;;;;;;;;;;;;;;;;;5094398;28;1978;-42
2023/03/02 03:43:56;;;;;;;;;;;;;;;;;;5112886;28;1679;-45
2023/03/02 03:46:24;;;;;;;;;;;;;;;;;;5112524;28;1979;-42
2023/03/02 03:48:52;;;;;;;;;;;;;;;;;;5112615;28;1948;-46
2023/03/02 03:51:19;;;;;;;;;;;;;;;;;;5112446;28;1923;-44
2023/03/02 03:53:58;;;;;;;;;;;;;;;;;;5112627;28;2038;-48
2023/03/02 03:56:32;;;;;;;;;;;;;;;;;;5094247;28;2056;-45
2023/03/02 03:59:06;;;;;;;;;;;;;;;;;;5112925;28;1655;-43
2023/03/02 04:01:44;;;;;;;;;;;;;;;;;;5094185;28;1954;-43
2023/03/02 04:04:14;;;;;;;;;;;;;;;;;;5093938;28;1846;-43
2023/03/02 04:06:42;;;;;;;;;;;;;;;;;;5092708;28;2140;-45
2023/03/02 04:09:11;;;;;;;;;;;;;;;;;;5073892;28;2027;-45
2023/03/02 04:11:40;;;;;;;;;;;;;;;;;;5091756;28;1946;-42
2023/03/02 04:14:08;;;;;;;;;;;;;;;;;;5091791;28;2096;-43
2023/03/02 04:16:36;;;;;;;;;;;;;;;;;;5073913;28;2021;-44
2023/03/02 04:19:08;;;;;;;;;;;;;;;;;;5091983;28;1783;-42
2023/03/02 04:21:39;;;;;;;;;;;;;;;;;;5087312;28;2253;-43
2023/03/02 04:24:07;;;;;;;;;;;;;;;;;;5073593;28;1890;-43
2023/03/02 04:26:35;;;;;;;;;;;;;;;;;;5082148;28;2058;-43
2023/03/02 04:29:04;;;;;;;;;;;;;;;;;;5073540;28;2036;-42
2023/03/02 04:31:31;;;;;;;;;;;;;;;;;;5075033;28;1903;-44
2023/03/02 04:34:02;;;;;;;;;;;;;;;;;;5090216;28;2211;-42
2023/03/02 04:36:32;;;;;;;;;;;;;;;;;;5090252;28;1740;-45
2023/03/02 04:39:03;;;;;;;;;;;;;;;;;;5090287;28;1894;-42
2023/03/02 04:41:31;;;;;;;;;;;;;;;;;;5091448;28;1657;-48
2023/03/02 04:43:58;;;;;;;;;;;;;;;;;;5091222;28;2055;-45
2023/03/02 04:46:26;;;;;;;;;;;;;;;;;;5091575;28;2109;-44
2023/03/02 04:48:54;;;;;;;;;;;;;;;;;;5091237;28;1876;-43
2023/03/02 04:51:23;;;;;;;;;;;;;;;;;;5091508;28;2118;-50
2023/03/02 04:53:54;;;;;;;;;;;;;;;;;;5090924;28;2057;-46
2023/03/02 04:56:21;;;;;;;;;;;;;;;;;;5091315;28;1928;-42
2023/03/02 04:58:48;;;;;;;;;;;;;;;;;;5091425;28;2090;-43
2023/03/02 05:01:16;;;;;;;;;;;;;;;;;;5091003;28;1869;-46
2023/03/02 05:03:44;;;;;;;;;;;;;;;;;;5091337;28;1890;-48
2023/03/02 05:06:12;;;;;;;;;;;;;;;;;;5106663;28;2263;-43
2023/03/02 05:08:39;;;;;;;;;;;;;;;;;;5111554;28;2056;-44
2023/03/02 05:11:07;;;;;;;;;;;;;;;;;;5111642;28;1905;-43
2023/03/02 05:13:35;;;;;;;;;;;;;;;;;;5111322;28;1963;-44
2023/03/02 05:16:02;;;;;;;;;;;;;;;;;;5114492;28;1984;-45
2023/03/02 05:18:30;;;;;;;;;;;;;;;;;;5115774;28;2222;-43
2023/03/02 05:20:57;;;;;;;;;;;;;;;;;;5115565;28;2172;-42
2023/03/02 05:23:25;;;;;;;;;;;;;;;;;;5115492;28;2113;-43
2023/03/02 05:25:53;;;;;;;;;;;;;;;;;;5115574;28;1987;-43
2023/03/02 05:28:22;;;;;;;;;;;;;;;;;;5105198;28;1734;-43
2023/03/02 05:30:49;;;;;;;;;;;;;;;;;;5095077;28;1903;-46
2023/03/02 05:33:19;;;;;;;;;;;;;;;;;;5115110;28;1971;-43
2023/03/02 05:35:47;;;;;;;;;;;;;;;;;;5115229;28;1411;-44
2023/03/02 05:38:14;;;;;;;;;;;;;;;;;;5097637;28;2096;-45
2023/03/02 05:40:42;;;;;;;;;;;;;;;;;;5095280;28;1995;-43
2023/03/02 05:43:12;;;;;;;;;;;;;;;;;;5095121;28;1791;-47
2023/03/02 05:45:39;;;;;;;;;;;;;;;;;;5094821;28;2128;-45
2023/03/02 05:48:07;;;;;;;;;;;;;;;;;;5094767;28;1421;-42
2023/03/02 05:50:34;;;;;;;;;;;;;;;;;;5094462;28;2061;-48
2023/03/02 05:53:02;;;;;;;;;;;;;;;;;;5094639;28;2198;-45
2023/03/02 05:55:29;;;;;;;;;;;;;;;;;;5094648;28;1931;-42
2023/03/02 05:57:56;;;;;;;;;;;;;;;;;;5094604;28;2031;-45
2023/03/02 06:00:24;;;;;;;;;;;;;;;;;;5094568;28;2129;-46
2023/03/02 06:02:51;;;;;;;;;;;;;;;;;;5094309;28;1973;-44
2023/03/02 06:05:19;;;;;;;;;;;;;;;;;;5102580;28;1911;-47
2023/03/02 06:07:46;;;;;;;;;;;;;;;;;;5114668;28;2080;-48
2023/03/02 06:10:13;;;;;;;;;;;;;;;;;;5114951;28;1838;-47
2023/03/02 06:12:40;;;;;;;;;;;;;;;;;;5114700;28;1664;-47
2023/03/02 06:15:08;;;;;;;;;;;;;;;;;;5114364;28;1903;-44
2023/03/02 06:17:35;;;;;;;;;;;;;;;;;;5114549;28;1938;-43
2023/03/02 06:20:06;;;;;;;;;;;;;;;;;;5114440;28;1763;-42
2023/03/02 06:22:43;;;;;;;;;;;;;;;;;;5114638;28;1779;-45
2023/03/02 06:25:12;;;;;;;;;;;;;;;;;;5099490;28;2192;-43
2023/03/02 06:27:40;;;;;;;;;;;;;;;;;;5092544;28;1929;-46
2023/03/02 06:30:08;;;;;;;;;;;;;;;;;;5093791;28;1679;-44
2023/03/02 06:32:35;;;;;;;;;;;;;;;;;;5107986;28;2148;-45
2023/03/02 06:35:03;;;;;;;;;;;;;;;;;;5113982;28;2013;-48
2023/03/02 06:37:31;;;;;;;;;;;;;;;;;;5114354;28;1991;-43
2023/03/02 06:39:58;;;;;;;;;;;;;;;;;;5114242;28;1804;-45
2023/03/02 06:42:26;;;;;;;;;;;;;;;;;;5114101;28;1724;-41
2023/03/02 06:44:54;;;;;;;;;;;;;;;;;;5113822;28;2220;-45
2023/03/02 06:47:21;;;;;;;;;;;;;;;;;;5113921;28;1905;-43
2023/03/02 06:49:49;;;;;;;;;;;;;;;;;;5113698;28;1982;-43
2023/03/02 06:52:16;;;;;;;;;;;;;;;;;;5095632;28;2103;-44
2023/03/02 06:54:43;;;;;;;;;;;;;;;;;;5113845;28;1833;-49
2023/03/02 06:57:10;;;;;;;;;;;;;;;;;;5113739;28;1976;-46
2023/03/02 06:59:38;;;;;;;;;;;;;;;;;;5113873;28;1752;-42
2023/03/02 07:02:05;;;;;;;;;;;;;;;;;;5113653;28;1942;-47
2023/03/02 07:04:32;;;;;;;;;;;;;;;;;;5111967;28;1995;-45
2023/03/02 07:06:59;;;;;;;;;;;;;;;;;;5092998;28;2432;-44
2023/03/02 07:09:29;;;;;;;;;;;;;;;;;;5093222;28;1749;-44
2023/03/02 07:11:56;;;;;;;;;;;;;;;;;;5092992;28;1656;-46
2023/03/02 07:14:24;;;;;;;;;;;;;;;;;;5092939;28;2134;-46
2023/03/02 07:16:51;;;;;;;;;;;;;;;;;;5092935;28;2127;-47
2023/03/02 07:19:18;;;;;;;;;;;;;;;;;;5092806;28;1642;-47
2023/03/02 07:21:45;;;;;;;;;;;;;;;;;;5093091;28;1832;-44
2023/03/02 07:24:13;;;;;;;;;;;;;;;;;;5092922;28;1696;-44
2023/03/02 07:26:40;;;;;;;;;;;;;;;;;;5074581;28;2227;-44
2023/03/02 07:29:07;;;;;;;;;;;;;;;;;;5074902;28;1987;-43
2023/03/02 07:31:34;;;;;;;;;;;;;;;;;;5098204;28;2002;-46
2023/03/02 07:34:01;;;;;;;;;;;;;;;;;;5110862;28;2028;-44
2023/03/02 07:36:29;;;;;;;;;;;;;;;;;;5092137;28;1692;-47
2023/03/02 07:38:56;;;;;;;;;;;;;;;;;;5091877;28;1788;-48
2023/03/02 07:41:23;;;;;;;;;;;;;;;;;;5092511;28;2045;-43
2023/03/02 07:43:50;;;;;;;;;;;;;;;;;;5092499;28;2147;-48
2023/03/02 07:46:17;;;;;;;;;;;;;;;;;;5092369;28;2034;-44
2023/03/02 07:48:45;;;;;;;;;;;;;;;;;;5092602;28;1662;-47
2023/03/02 07:51:12;;;;;;;;;;;;;;;;;;5092111;28;1799;-43
2023/03/02 07:53:39;;;;;;;;;;;;;;;;;;5095581;28;1513;-45
2023/03/02 07:56:07;;;;;;;;;;;;;;;;;;5092008;28;1854;-39
2023/03/02 07:58:34;;;;;;;;;;;;;;;;;;5092176;28;1973;-43
2023/03/02 08:01:02;;;;;;;;;;;;;;;;;;5092291;28;2281;-44
2023/03/02 08:03:29;;;;;;;;;;;;;;;;;;5091585;28;2105;-43
2023/03/02 08:06:02;;;;;;;;;;;;;;;;;;5105150;28;1996;-44
2023/03/02 08:08:30;;;;;;;;;;;;;;;;;;5094087;28;1979;-48
2023/03/02 08:11:02;;;;;;;;;;;;;;;;;;5112166;28;1786;-45
2023/03/02 08:13:29;;;;;;;;;;;;;;;;;;5112253;28;2005;-47
2023/03/02 08:16:00;;;;;;;;;;;;;;;;;;5111567;28;2018;-44
2023/03/02 08:18:27;;;;;;;;;;;;;;;;;;5091471;28;1907;-46
2023/03/02 08:20:55;;;;;;;;;;;;;;;;;;5091707;28;2226;-44
2023/03/02 08:23:22;;;;;;;;;;;;;;;;;;5091819;28;2031;-43
2023/03/02 08:25:51;;;;;;;;;;;;;;;;;;5092090;28;1975;-43
2023/03/02 08:28:19;;;;;;;;;;;;;;;;;;5091828;28;1906;-44
2023/03/02 08:30:56;;;;;;;;;;;;;;;;;;5091775;28;1379;-44
2023/03/02 08:33:23;;;;;;;;;;;;;;;;;;5105007;28;1888;-44
2023/03/02 08:36:14;;;;;;;;;;;;;;;;;;5112177;28;1472;-43
2023/03/02 08:38:41;;;;;;;;;;;;;;;;;;5101487;28;2318;-44
2023/03/02 08:41:13;;;;;;;;;;;;;;;;;;5111507;28;1575;-44
2023/03/02 08:43:41;;;;;;;;;;;;;;;;;;5111479;28;1853;-44
2023/03/02 08:46:09;;;;;;;;;;;;;;;;;;5111854;28;2055;-46
2023/03/02 08:48:38;;;;;;;;;;;;;;;;;;5111387;28;1917;-44
2023/03/02 08:51:07;;;;;;;;;;;;;;;;;;5111322;28;1825;-45
2023/03/02 08:53:36;;;;;;;;;;;;;;;;;;5093411;28;2120;-45
2023/03/02 08:56:13;;;;;;;;;;;;;;;;;;5111746;28;1825;-47
2023/03/02 08:58:40;;;;;;;;;;;;;;;;;;5111524;28;1851;-49
2023/03/02 09:01:14;;;;;;;;;;;;;;;;;;5111567;28;2090;-41
2023/03/02 09:03:41;;;;;;;;;;;;;;;;;;5111599;28;2037;-47
2023/03/02 09:06:08;;;;;;;;;;;;;;;;;;5096320;28;2077;-42
2023/03/02 09:08:36;;;;;;;;;;;;;;;;;;5091060;28;1967;-44
2023/03/02 09:11:03;;;;;;;;;;;;;;;;;;5091189;28;1657;-43
2023/03/02 09:13:30;;;;;;;;;;;;;;;;;;5091125;28;2085;-46
2023/03/02 09:15:58;;;;;;;;;;;;;;;;;;5091207;28;1954;-47
2023/03/02 09:18:25;;;;;;;;;;;;;;;;;;5091507;28;1896;-47
2023/03/02 09:20:52;;;;;;;;;;;;;;;;;;5091397;28;1581;-42
2023/03/02 09:23:19;;;;;;;;;;;;;;;;;;5090926;28;1927;-43
2023/03/02 09:25:47;;;;;;;;;;;;;;;;;;5090871;28;1818;-49
2023/03/02 09:28:15;;;;;;;;;;;;;;;;;;5091002;28;1917;-44
2023/03/02 09:30:47;;;;;;;;;;;;;;;;;;5091163;28;1979;-45
2023/03/02 09:33:14;;;;;;;;;;;;;;;;;;5110805;28;1709;-46
2023/03/02 09:35:41;;;;;;;;;;;;;;;;;;5111131;28;1832;-42
2023/03/02 09:38:11;;;;;;;;;;;;;;;;;;5111318;28;1972;-45
2023/03/02 09:40:41;;;;;;;;;;;;;;;;;;5111507;28;1402;-46
2023/03/02 09:43:11;;;;;;;;;;;;;;;;;;5111069;28;2229;-42
2023/03/02 09:45:49;;;;;;;;;;;;;;;;;;5111161;28;1959;-43
2023/03/02 09:48:22;;;;;;;;;;;;;;;;;;5110867;28;1955;-43
2023/03/02 09:51:01;;;;;;;;;;;;;;;;;;5111192;28;1722;-46
2023/03/02 09:53:45;;;;;;;;;;;;;;;;;;5111205;28;2052;-44
2023/03/02 09:56:17;;;;;;;;;;;;;;;;;;5111170;28;2125;-41
2023/03/02 09:58:51;;;;;;;;;;;;;;;;;;5111045;28;1911;-41
2023/03/02 10:01:26;;;;;;;;;;;;;;;;;;5112059;28;1807;-43
2023/03/02 10:03:55;;;;;;;;;;;;;;;;;;5114999;28;1782;-43
2023/03/02 10:06:22;;;;;;;;;;;;;;;;;;5097488;28;1696;-41
2023/03/02 10:08:49;;;;;;;;;;;;;;;;;;5093914;28;1964;-45
2023/03/02 10:11:21;;;;;;;;;;;;;;;;;;5094295;28;2185;-44
2023/03/02 10:14:06;;;;;;;;;;;;;;;;;;5094230;28;1947;-41
2023/03/02 10:16:37;;;;;;;;;;;;;;;;;;5094272;28;1671;-45
2023/03/02 10:19:10;;;;;;;;;;;;;;;;;;5094326;28;2053;-40
2023/03/02 10:21:46;;;;;;;;;;;;;;;;;;5094074;28;1879;-40
2023/03/02 10:24:31;;;;;;;;;;;;;;;;;;5093696;28;1797;-41
2023/03/02 10:27:12;;;;;;;;;;;;;;;;;;5093967;28;2052;-40
2023/03/02 10:29:59;;;;;;;;;;;;;;;;;;5093872;28;1860;-40
2023/03/02 10:32:28;;;;;;;;;;;;;;;;;;5107165;28;2327;-40
2023/03/02 10:34:58;;;;;;;;;;;;;;;;;;5114075;28;1954;-40
2023/03/02 10:37:28;;;;;;;;;;;;;;;;;;5114424;28;1535;-39
2023/03/02 10:39:58;;;;;;;;;;;;;;;;;;5114370;28;2095;-43
2023/03/02 10:42:29;;;;;;;;;;;;;;;;;;5113911;28;1646;-40
2023/03/02 10:45:01;;;;;;;;;;;;;;;;;;5114306;28;2046;-41
2023/03/02 10:47:29;;;;;;;;;;;;;;;;;;5113851;28;2126;-40
2023/03/02 10:49:56;;;;;;;;;;;;;;;;;;5114046;28;2106;-39
2023/03/02 10:52:25;;;;;;;;;;;;;;;;;;5113136;28;2245;-40
2023/03/02 10:55:06;;;;;;;;;;;;;;;;;;5095477;28;1762;-39
2023/03/02 10:57:35;;;;;;;;;;;;;;;;;;5113473;28;2543;-39
2023/03/02 11:00:22;;;;;;;;;;;;;;;;;;5113878;28;1800;-40
2023/03/02 11:02:50;;;;;;;;;;;;;;;;;;5113495;28;1968;-39
2023/03/02 11:05:20;;;;;;;;;;;;;;;;;;5105466;28;1912;-39
2023/03/02 11:08:10;;;;;;;;;;;;;;;;;;5093085;28;1914;-39
2023/03/02 11:10:39;;;;;;;;;;;;;;;;;;5085566;28;1947;-40
2023/03/02 11:13:17;;;;;;;;;;;;;;;;;;5092394;28;2005;-39
2023/03/02 11:15:49;;;;;;;;;;;;;;;;;;5092983;28;2007;-39
2023/03/02 11:18:19;;;;;;;;;;;;;;;;;;5093246;28;1802;-39
2023/03/02 11:20:49;;;;;;;;;;;;;;;;;;5092914;28;2181;-40
2023/03/02 11:23:25;;;;;;;;;;;;;;;;;;5093000;28;1884;-39
2023/03/02 11:25:54;;;;;;;;;;;;;;;;;;5093174;28;1832;-39
2023/03/02 11:28:37;;;;;;;;;;;;;;;;;;5092807;28;2327;-40
2023/03/02 11:31:06;;;;;;;;;;;;;;;;;;5094453;28;1556;-40
2023/03/02 11:33:33;;;;;;;;;;;;;;;;;;5113261;28;1916;-39
2023/03/02 11:36:07;;;;;;;;;;;;;;;;;;5113189;28;1742;-39
2023/03/02 11:38:48;;;;;;;;;;;;;;;;;;5113242;28;1984;-40
2023/03/02 11:41:26;;;;;;;;;;;;;;;;;;5113274;28;1355;-39
2023/03/02 11:43:57;;;;;;;;;;;;;;;;;;5112746;28;2053;-39
2023/03/02 11:46:29;;;;;;;;;;;;;;;;;;5112965;28;1862;-40
2023/03/02 11:48:58;;;;;;;;;;;;;;;;;;5112435;28;1913;-40
2023/03/02 11:51:27;;;;;;;;;;;;;;;;;;5112808;28;1812;-41
2023/03/02 11:53:54;;;;;;;;;;;;;;;;;;5112882;28;2127;-42
2023/03/02 11:56:22;;;;;;;;;;;;;;;;;;5112911;28;1899;-40
2023/03/02 11:58:52;;;;;;;;;;;;;;;;;;5112676;28;2205;-42
2023/03/02 12:01:22;;;;;;;;;;;;;;;;;;5108769;28;1878;-40
2023/03/02 12:03:50;;;;;;;;;;;;;;;;;;5091899;28;1969;-41
2023/03/02 12:06:20;;;;;;;;;;;;;;;;;;5108282;28;1969;-43
2023/03/02 12:08:50;;;;;;;;;;;;;;;;;;5111154;28;2352;-41
2023/03/02 12:11:17;;;;;;;;;;;;;;;;;;5112522;28;2356;-40
2023/03/02 12:13:44;;;;;;;;;;;;;;;;;;5112626;28;1717;-40
2023/03/02 12:16:19;;;;;;;;;;;;;;;;;;5111939;28;1759;-40
2023/03/02 12:18:47;;;;;;;;;;;;;;;;;;5112379;28;2010;-41
2023/03/02 12:21:14;;;;;;;;;;;;;;;;;;5112227;28;1644;-41
2023/03/02 12:23:47;;;;;;;;;;;;;;;;;;5112060;28;2103;-41
2023/03/02 12:26:20;;;;;;;;;;;;;;;;;;5111834;28;1479;-41
2023/03/02 12:28:56;;;;;;;;;;;;;;;;;;5111947;28;2063;-41
2023/03/02 12:31:24;;;;;;;;;;;;;;;;;;5100636;28;1871;-43
2023/03/02 12:33:52;;;;;;;;;;;;;;;;;;5112049;28;1946;-49
2023/03/02 12:36:19;;;;;;;;;;;;;;;;;;5112082;28;1874;-41
2023/03/02 12:38:54;;;;;;;;;;;;;;;;;;5111587;28;1808;-42
2023/03/02 12:41:28;;;;;;;;;;;;;;;;;;5111492;28;1928;-43
2023/03/02 12:44:12;;;;;;;;;;;;;;;;;;5111737;28;1744;-46
2023/03/02 12:46:43;;;;;;;;;;;;;;;;;;5111747;28;2055;-43
2023/03/02 12:49:13;;;;;;;;;;;;;;;;;;5111887;28;2031;-43
2023/03/02 12:51:47;;;;;;;;;;;;;;;;;;5111591;28;2135;-44
2023/03/02 12:54:16;;;;;;;;;;;;;;;;;;5098813;28;2232;-41
2023/03/02 12:56:43;;;;;;;;;;;;;;;;;;5091282;28;2183;-43
2023/03/02 12:59:22;;;;;;;;;;;;;;;;;;5091000;28;2124;-42
2023/03/02 13:01:50;;;;;;;;;;;;;;;;;;5091060;28;1896;-47
2023/03/02 13:04:25;;;;;;;;;;;;;;;;;;5090998;28;2091;-43
2023/03/02 13:06:53;;;;;;;;;;;;;;;;;;5091371;28;1995;-41
2023/03/02 13:09:20;;;;;;;;;;;;;;;;;;5090900;28;1960;-42
2023/03/02 13:11:48;;;;;;;;;;;;;;;;;;5091060;28;1917;-41
2023/03/02 13:14:20;;;;;;;;;;;;;;;;;;5091128;28;1810;-41
2023/03/02 13:16:58;;;;;;;;;;;;;;;;;;5090975;28;1870;-40
2023/03/02 13:19:26;;;;;;;;;;;;;;;;;;5090874;28;1896;-42
2023/03/02 13:21:53;;;;;;;;;;;;;;;;;;5090734;28;1698;-41
2023/03/02 13:24:26;;;;;;;;;;;;;;;;;;5090852;28;1746;-43
2023/03/02 13:26:56;;;;;;;;;;;;;;;;;;5090775;28;1956;-42
2023/03/02 13:29:25;;;;;;;;;;;;;;;;;;5091013;28;1974;-45
2023/03/02 13:31:53;;;;;;;;;;;;;;;;;;5099039;28;1971;-41
2023/03/02 13:34:21;;;;;;;;;;;;;;;;;;5111206;28;1631;-42
2023/03/02 13:36:49;;;;;;;;;;;;;;;;;;5113334;28;1685;-43
2023/03/02 13:39:19;;;;;;;;;;;;;;;;;;5115169;28;2002;-40
2023/03/02 13:42:12;;;;;;;;;;;;;;;;;;5115115;28;2376;-41
2023/03/02 13:44:39;;;;;;;;;;;;;;;;;;5112730;28;1960;-42
2023/03/02 13:47:20;;;;;;;;;;;;;;;;;;5115352;28;1687;-44
2023/03/02 13:49:47;;;;;;;;;;;;;;;;;;5114891;28;1927;-49
2023/03/02 13:52:17;;;;;;;;;;;;;;;;;;5115150;28;1716;-42
2023/03/02 13:54:46;;;;;;;;;;;;;;;;;;5103983;28;1999;-47
2023/03/02 13:57:17;;;;;;;;;;;;;;;;;;5094322;28;1724;-45
2023/03/02 13:59:45;;;;;;;;;;;;;;;;;;5094590;28;2005;-45
2023/03/02 14:02:20;;;;;;;;;;;;;;;;;;5094549;28;1824;-40
2023/03/02 14:04:47;;;;;;;;;;;;;;;;;;5098228;28;1432;-43
2023/03/02 14:07:16;;;;;;;;;;;;;;;;;;5096610;28;1981;-40
2023/03/02 14:09:45;;;;;;;;;;;;;;;;;;5114816;28;1964;-41
2023/03/02 14:12:20;;;;;;;;;;;;;;;;;;5114859;28;2101;-41
2023/03/02 14:14:47;;;;;;;;;;;;;;;;;;5114579;28;2130;-40
2023/03/02 14:17:17;;;;;;;;;;;;;;;;;;5114346;28;2051;-42
2023/03/02 14:19:51;;;;;;;;;;;;;;;;;;5114039;28;1761;-41
2023/03/02 14:22:19;;;;;;;;;;;;;;;;;;5114738;28;1694;-42
2023/03/02 14:24:46;;;;;;;;;;;;;;;;;;5114056;28;1845;-43
2023/03/02 14:27:16;;;;;;;;;;;;;;;;;;5114659;28;1716;-47
2023/03/02 14:29:44;;;;;;;;;;;;;;;;;;5114300;28;2299;-40
2023/03/02 14:32:12;;;;;;;;;;;;;;;;;;5114847;28;1931;-41
2023/03/02 14:34:40;;;;;;;;;;;;;;;;;;5113254;28;1752;-46
2023/03/02 14:37:10;;;;;;;;;;;;;;;;;;5112059;28;1580;-42
2023/03/02 14:39:38;;;;;;;;;;;;;;;;;;5112107;28;1486;-46
2023/03/02 14:42:10;;;;;;;;;;;;;;;;;;5112333;28;2212;-41
2023/03/02 14:44:37;;;;;;;;;;;;;;;;;;5093749;28;2574;-40
2023/03/02 14:47:04;;;;;;;;;;;;;;;;;;5111626;28;2084;-43
2023/03/02 14:49:31;;;;;;;;;;;;;;;;;;5112249;28;2207;-41
2023/03/02 14:52:01;;;;;;;;;;;;;;;;;;5094168;28;1659;-44
2023/03/02 14:54:55;;;;;;;;;;;;;;;;;;5093361;28;1980;-41
2023/03/02 14:57:24;;;;;;;;;;;;;;;;;;5090263;28;1848;-41
2023/03/02 14:59:52;;;;;;;;;;;;;;;;;;5093471;28;1940;-41
2023/03/02 15:02:19;;;;;;;;;;;;;;;;;;5093312;28;1812;-41
2023/03/02 15:04:53;;;;;;;;;;;;;;;;;;5097472;28;1772;-42
2023/03/02 15:07:24;;;;;;;;;;;;;;;;;;5113853;28;1361;-45
2023/03/02 15:09:51;;;;;;;;;;;;;;;;;;5113603;28;2200;-40
2023/03/02 15:12:18;;;;;;;;;;;;;;;;;;5113506;28;2111;-42
2023/03/02 15:14:45;;;;;;;;;;;;;;;;;;5113707;28;1825;-40
2023/03/02 15:17:13;;;;;;;;;;;;;;;;;;5113519;28;1910;-42
2023/03/02 15:19:40;;;;;;;;;;;;;;;;;;5113353;28;1903;-43
2023/03/02 15:22:07;;;;;;;;;;;;;;;;;;5113222;28;2027;-42
2023/03/02 15:24:34;;;;;;;;;;;;;;;;;;5112800;28;1589;-40
2023/03/02 15:27:01;;;;;;;;;;;;;;;;;;5112840;28;1856;-42
2023/03/02 15:29:28;;;;;;;;;;;;;;;;;;5113054;28;1978;-45
2023/03/02 15:31:56;;;;;;;;;;;;;;;;;;5104017;28;1887;-41
2023/03/02 15:34:23;;;;;;;;;;;;;;;;;;5092669;28;1971;-42
2023/03/02 15:36:50;;;;;;;;;;;;;;;;;;5092260;28;2214;-41
2023/03/02 15:39:18;;;;;;;;;;;;;;;;;;5092759;28;2068;-42
2023/03/02 15:41:45;;;;;;;;;;;;;;;;;;5092246;28;1912;-42
2023/03/02 15:44:20;;;;;;;;;;;;;;;;;;5092829;28;1494;-41
2023/03/02 15:46:55;;;;;;;;;;;;;;;;;;5092477;28;1755;-42
2023/03/02 15:49:26;;;;;;;;;;;;;;;;;;5092693;28;2147;-43
2023/03/02 15:51:56;;;;;;;;;;;;;;;;;;5092354;28;1484;-40
2023/03/02 15:54:23;;;;;;;;;;;;;;;;;;5092428;28;1377;-42
2023/03/02 15:56:52;;;;;;;;;;;;;;;;;;5092179;28;1962;-41
2023/03/02 15:59:23;;;;;;;;;;;;;;;;;;5092260;28;1970;-43
2023/03/02 16:01:50;;;;;;;;;;;;;;;;;;5092277;28;2275;-41
2023/03/02 16:04:17;;;;;;;;;;;;;;;;;;5092378;28;2032;-47
2023/03/02 16:06:45;;;;;;;;;;;;;;;;;;5112292;28;2070;-42
2023/03/02 16:09:14;;;;;;;;;;;;;;;;;;5112258;28;1915;-42
2023/03/02 16:11:41;;;;;;;;;;;;;;;;;;5112252;28;2120;-43
2023/03/02 16:14:08;;;;;;;;;;;;;;;;;;5112471;28;1931;-42
2023/03/02 16:16:35;;;;;;;;;;;;;;;;;;5112571;28;2085;-42
2023/03/02 16:19:03;;;;;;;;;;;;;;;;;;5112294;28;1658;-47
2023/03/02 16:21:30;;;;;;;;;;;;;;;;;;5112387;28;1952;-41
2023/03/02 16:24:02;;;;;;;;;;;;;;;;;;5112389;28;2012;-42
2023/03/02 16:26:34;;;;;;;;;;;;;;;;;;5112197;28;1824;-41
2023/03/02 16:29:01;;;;;;;;;;;;;;;;;;5111863;28;1978;-41
2023/03/02 16:31:31;;;;;;;;;;;;;;;;;;5107102;28;2045;-44
2023/03/02 16:34:02;;;;;;;;;;;;;;;;;;5091768;28;2013;-43
2023/03/02 16:36:30;;;;;;;;;;;;;;;;;;5090954;28;1824;-47
2023/03/02 16:38:57;;;;;;;;;;;;;;;;;;5091136;28;1353;-46
2023/03/02 16:41:24;;;;;;;;;;;;;;;;;;5091137;28;1683;-46
2023/03/02 16:43:55;;;;;;;;;;;;;;;;;;5091450;28;1949;-42
2023/03/02 16:46:24;;;;;;;;;;;;;;;;;;5091765;28;1449;-45
2023/03/02 16:48:52;;;;;;;;;;;;;;;;;;5091448;28;2013;-43
2023/03/02 16:51:19;;;;;;;;;;;;;;;;;;5091269;28;1803;-48
2023/03/02 16:53:47;;;;;;;;;;;;;;;;;;5090982;28;1722;-47
2023/03/02 16:56:14;;;;;;;;;;;;;;;;;;5091311;28;2098;-46
2023/03/02 16:58:41;;;;;;;;;;;;;;;;;;5091351;28;1984;-42
2023/03/02 17:01:15;;;;;;;;;;;;;;;;;;5090975;28;1808;-41
2023/03/02 17:03:43;;;;;;;;;;;;;;;;;;5091206;28;1883;-42
2023/03/02 17:06:12;;;;;;;;;;;;;;;;;;5106388;28;2117;-41
2023/03/02 17:08:39;;;;;;;;;;;;;;;;;;5111289;28;1937;-44
2023/03/02 17:11:10;;;;;;;;;;;;;;;;;;5092554;28;2086;-42
2023/03/02 17:13:37;;;;;;;;;;;;;;;;;;5111466;28;1992;-42
2023/03/02 17:16:04;;;;;;;;;;;;;;;;;;5111419;28;2057;-41
2023/03/02 17:18:32;;;;;;;;;;;;;;;;;;5111419;28;2096;-41
2023/03/02 17:20:59;;;;;;;;;;;;;;;;;;5111627;28;1734;-42